Flight Track Log - Related Links

Times and Time Zones

All times are in EDT time to prevent confusion due to time zone crossing. See the LOF3416 flight status page for this flight to view local times or setup timezone preferences in your user account.

Time Position Orientation Groundspeed Altitude Reporting Facility
EDT Latitude Longitude Course Direction KTS MPH feet Rate Location/Type
Sun 08:12:09 PM 37.3189 -93.2353 33° Northeast 250 288 6,900  Level Kansas City Center
Sun 08:13:13 PM 37.3806 -93.1811 35° Northeast 262 302 9,000 1,968 Climbing Kansas City Center
Sun 08:14:14 PM 37.4472 -93.1231 35° Northeast 280 322 11,000 1,918 Climbing Kansas City Center
Sun 08:15:00 PM 37.6823 -92.9247 40° Northeast  Level Estimated
Sun 08:15:15 PM 37.5147 -93.0647 34° Northeast 290 334 12,900  Level Kansas City Center
Sun 08:16:00 PM 37.7549 -92.8468 40° Northeast  Level Estimated
Sun 08:16:19 PM 37.5828 -93.0050 35° Northeast 294 338 14,700  Level Kansas City Center
Sun 08:17:20 PM 37.6525 -92.9444 35° Northeast 298 343 16,400 1,574 Climbing Kansas City Center
Sun 08:18:21 PM 37.7219 -92.8831 35° Northeast 302 348 17,900 1,452 Climbing Kansas City Center
Sun 08:19:24 PM 37.8042 -92.8117 34° Northeast 299 344 19,400 1,317 Climbing Kansas City Center
Sun 08:20:24 PM 37.8750 -92.7486 35° Northeast 305 351 20,600 984 Climbing Kansas City Center
Sun 08:21:26 PM 37.9389 -92.6919 35° Northeast 312 359 21,400 810 Climbing Kansas City Center
Sun 08:22:30 PM 38.0125 -92.6275 35° Northeast 320 368 22,300 960 Climbing Kansas City Center
Sun 08:23:31 PM 38.1028 -92.5469 35° Northeast 328 377 23,400 1,041 Climbing Kansas City Center
Sun 08:24:31 PM 38.1794 -92.4803 34° Northeast 332 382 24,400 885 Climbing Kansas City Center
Sun 08:25:33 PM 38.2531 -92.4150 35° Northeast 332 382 25,200 810 Climbing Kansas City Center
Sun 08:26:37 PM 38.3267 -92.3481 35° Northeast 326 375 26,100 871 Climbing Kansas City Center
Sun 08:27:37 PM 38.4000 -92.2822 35° Northeast 321 369 27,000 443 Climbing Kansas City Center
Sun 08:28:39 PM 38.4750 -92.2158 35° Northeast 323 372 27,000  Level Kansas City Center
Sun 08:29:40 PM 38.5728 -92.1267 35° Northeast 343 395 27,000  Level Kansas City Center
Sun 08:30:43 PM 38.6567 -92.0506 35° Northeast 357 411 27,000  Level Kansas City Center
Sun 08:31:44 PM 38.7403 -91.9747 35° Northeast 364 419 27,000  Level Kansas City Center
Sun 08:32:48 PM 38.8247 -91.8981 35° Northeast 367 422 27,000  Level Kansas City Center
Sun 08:33:49 PM 38.9108 -91.8194 35° Northeast 373 429 27,000  Level Kansas City Center
Sun 08:34:50 PM 38.9958 -91.7414 36° Northeast 374 430 27,000  Level Kansas City Center
Sun 08:35:51 PM 39.0814 -91.6633 35° Northeast 378 435 27,000  Level Kansas City Center
Sun 08:36:55 PM 39.1708 -91.5811 35° Northeast 384 442 27,000  Level Kansas City Center
Sun 08:37:56 PM 39.2769 -91.4839 35° Northeast 388 447 27,000  Level Kansas City Center
Sun 08:38:57 PM 39.3622 -91.4039 36° Northeast 385 443 27,000  Level Kansas City Center
Sun 08:39:58 PM 39.4475 -91.3253 35° Northeast 379 436 27,000  Level Kansas City Center
Sun 08:41:01 PM 39.5336 -91.2450 36° Northeast 379 436 27,000  Level Kansas City Center
Sun 08:42:03 PM 39.6211 -91.1633 36° Northeast 384 442 27,000  Level Kansas City Center
Sun 08:43:04 PM 39.7069 -91.0822 36° Northeast 382 440 27,000  Level Kansas City Center
Sun 08:44:07 PM 39.7947 -90.9931 38° Northeast 380 437 27,000  Level Kansas City Center
Sun 08:45:08 PM 39.8864 -90.9025 37° Northeast 380 437 27,000  Level Kansas City Center
Sun 08:46:09 PM 39.9722 -90.8172 37° Northeast 384 442 27,000  Level Kansas City Center
Sun 08:47:13 PM 40.0558 -90.7306 38° Northeast 384 442 27,000  Level Kansas City Center
Sun 08:48:13 PM 40.1386 -90.6447 38° Northeast 382 440 27,000  Level Kansas City Center
Sun 08:49:17 PM 40.2256 -90.5589 37° Northeast 387 445 27,000  Level Kansas City Center
Sun 08:50:17 PM 40.3097 -90.4725 38° Northeast 386 444 27,000  Level Kansas City Center
Sun 08:51:18 PM 40.4097 -90.3686 38° Northeast 382 440 27,000  Level Kansas City Center
Sun 08:52:21 PM 40.4956 -90.2819 38° Northeast 386 444 27,000  Level Kansas City Center
Sun 08:53:22 PM 40.5811 -90.1936 38° Northeast 386 444 27,000  Level Kansas City Center
Sun 08:54:24 PM 40.6642 -90.1056 39° Northeast 386 444 27,000  Level Kansas City Center
Sun 08:55:25 PM 40.7500 -90.0200 37° Northeast 388 447 27,000  Level Kansas City Center
Sun 08:56:27 PM 40.8419 -89.9267 38° Northeast 392 451 27,000 -431 Level Kansas City Center
Sun 08:57:58 PM 40.9661 -89.7772 42° Northeast 375 432 25,900 -1,059 Descending Chicago Center
Sun 08:59:00 PM 41.0286 -89.6628 54° Northeast 373 429 24,300 -1,488 Descending Chicago Center
Sun 09:00:03 PM 41.0861 -89.5508 56° Northeast 366 421 22,800 -1,500 Descending Chicago Center
Sun 09:01:04 PM 41.1408 -89.4444 56° Northeast 350 403 21,200 -1,561 Descending Chicago Center
Sun 09:02:06 PM 41.1942 -89.3406 56° Northeast 342 394 19,600 -1,632 Descending Chicago Center
Sun 09:03:09 PM 41.2469 -89.2356 56° Northeast 341 392 17,800 -1,680 Descending Chicago Center
Sun 09:04:11 PM 41.3056 -89.1161 57° Northeast 338 389 16,100 -1,694 Descending Chicago Center
Sun 09:05:13 PM 41.3581 -89.0139 56° Northeast 336 387 14,300 -1,645 Descending Chicago Center
Sun 09:06:15 PM 41.4064 -88.9167 56° Northeast 320 368 12,700 -1,258 Descending Chicago Center
Sun 09:07:17 PM 41.4544 -88.8228 56° Northeast 310 357 11,700 -823 Descending Chicago Center
Sun 09:08:19 PM 41.5108 -88.7114 56° Northeast 303 349 11,000 -290 Descending Chicago Center
Sun 09:09:21 PM 41.5489 -88.6114 63° Northeast 301 346 11,100 48 Climbing Chicago Center
Sun 09:10:23 PM 41.5886 -88.5133 62° Northeast 301 346 11,100 -532 Level Chicago Center
Sun 09:11:25 PM 41.6147 -88.4122 71° East 288 331 10,000 -1,306 Descending Chicago Center
Sun 09:12:27 PM 41.6267 -88.3097 81° East 279 321 8,400 -1,016 Descending Chicago Center
Sun 09:13:29 PM 41.6683 -88.2256 56° Northeast 274 315 7,900 -581 Descending Chicago Center
Sun 09:14:31 PM 41.7431 -88.1508 37° Northeast 278 320 7,200 -1,258 Descending Chicago Center
Sun 09:15:33 PM 41.7936 -88.0861 44° Northeast 258 297 5,300 -1,839 Descending Chicago Center
Sun 09:16:35 PM 41.8408 -88.0325 40° Northeast 232 267 3,400 -1,452 Descending Chicago Center
Sun 09:17:37 PM 41.8847 -87.9797 42° Northeast 220 253 2,300 -912 Descending Chicago Center
Sun 09:18:40 PM 41.9197 -87.9400 40° Northeast 189 217 1,500 -576 Descending Chicago Center
Sun 09:19:42 PM 41.9492 -87.9036 43° Northeast 160 184 1,100 -387 Descending Chicago Center
Sun 09:21:00 PM 41.9667 -87.9000 37° Northeast  Level FlightAware Approximate

Login

Don't have an account? Register now (free) for customized features, flight alerts, and more!